Time;durP1;ratioP1;P1;durP2;ratioP2;P2;SDS_P1;SDS_P2;PMS_P1;PMS_P2;Temp;Humidity;BMP_temperature;BMP_pressure;BME280_temperature;BME280_humidity;BME280_pressure;Samples;Min_cycle;Max_cycle;Signal;HPM_P1;HPM_P2
2021/07/25 00:01:24;;;;;;;18.13;13.68;;;538.10;2304.00;;;;;;5052201;28;20059;-78
2021/07/25 00:03:50;;;;;;;19.95;14.15;;;538.10;2304.00;;;;;;5063931;28;20718;-78
2021/07/25 00:06:16;;;;;;;15.60;13.63;;;538.10;2278.40;;;;;;5074360;28;20032;-78
2021/07/25 00:08:42;;;;;;;16.02;13.23;;;538.20;2278.40;;;;;;5073900;28;20027;-75
2021/07/25 00:11:33;;;;;;;18.92;13.77;;;538.20;2304.00;;;;;;5066437;28;20025;-80
2021/07/25 00:20:48;;;;;;;27.88;17.55;;;538.00;2329.60;;;;;;4986020;28;20630;-78
2021/07/25 00:23:29;;;;;;;26.58;16.83;;;537.90;2329.60;;;;;;4974019;28;20039;-79
2021/07/25 00:26:49;;;;;;;25.83;17.05;;;537.80;2355.20;;;;;;4973343;28;20069;-77
2021/07/25 00:29:30;;;;;;;;;;;537.70;2355.20;;;;;;4965660;28;20054;-77
2021/07/25 00:32:20;;;;;;;25.92;16.95;;;537.60;2380.80;;;;;;4973169;28;19909;-78
2021/07/25 00:35:10;;;;;;;23.05;16.35;;;512.80;2380.80;;;;;;4973609;28;20063;-76
2021/07/25 00:38:02;;;;;;;20.08;14.23;;;512.80;2380.80;;;;;;4972299;28;20089;-77
2021/07/25 00:41:08;;;;;;;;;;;;;;;;;;;;;
2021/07/25 00:44:09;;;;;;;19.23;13.55;;;512.60;2380.80;;;;;;4934923;29;20035;-77
2021/07/25 00:47:10;;;;;;;18.35;14.55;;;512.60;2380.80;;;;;;4921968;29;20043;-78
2021/07/25 00:50:03;;;;;;;29.90;14.73;;;512.50;2380.80;;;;;;4864085;29;20056;-78
2021/07/25 00:53:43;;;;;;;;;;;;;;;;;;;;;
2021/07/25 00:56:11;;;;;;;18.98;11.85;;;512.30;2380.80;;;;;;4861837;29;20029;-78
2021/07/25 00:58:39;;;;;;;17.45;12.48;;;512.20;2380.80;;;;;;4877945;29;20456;-78
2021/07/25 01:01:07;;;;;;;22.80;12.82;;;512.40;2380.80;;;;;;4889786;29;20468;-78
2021/07/25 01:04:02;;;;;;;15.65;11.57;;;512.50;2380.80;;;;;;4887878;29;20123;-77
2021/07/25 01:06:45;;;;;;;15.13;12.35;;;512.50;2380.80;;;;;;4864405;29;20072;-78
2021/07/25 01:09:23;;;;;;;12.80;11.43;;;512.50;2380.80;;;;;;4877874;29;20033;-78
2021/07/25 01:11:56;;;;;;;14.93;12.43;;;512.50;2380.80;;;;;;4892562;29;20079;-78
2021/07/25 01:14:34;;;;;;;18.67;13.32;;;512.40;2380.80;;;;;;4877695;29;20033;-78
2021/07/25 01:17:28;;;;;;;15.65;12.90;;;512.40;2380.80;;;;;;4901892;29;20040;-76
2021/07/25 01:19:56;;;;;;;18.67;13.35;;;512.50;2380.80;;;;;;4918027;29;20044;-78
2021/07/25 01:22:22;;;;;;;15.68;11.73;;;512.50;2380.80;;;;;;4918154;29;20039;-77
2021/07/25 01:24:48;;;;;;;19.13;13.10;;;512.50;2380.80;;;;;;4945114;28;20587;-78
2021/07/25 01:27:26;;;;;;;19.38;13.68;;;512.60;2380.80;;;;;;4984129;28;20022;-77
2021/07/25 01:29:53;;;;;;;25.13;13.60;;;512.70;2380.80;;;;;;5001866;28;20066;-77
2021/07/25 01:32:20;;;;;;;17.05;12.82;;;512.60;2380.80;;;;;;5050535;28;20039;-77
2021/07/25 01:34:48;;;;;;;19.13;12.88;;;512.50;2380.80;;;;;;5069093;28;20031;-77
2021/07/25 01:37:15;;;;;;;22.80;12.32;;;512.50;2380.80;;;;;;5069059;28;20029;-76
2021/07/25 01:39:42;;;;;;;21.55;11.82;;;512.60;2380.80;;;;;;5068894;28;20489;-76
2021/07/25 01:42:08;;;;;;;16.55;12.82;;;512.50;2380.80;;;;;;5065691;28;20395;-77
2021/07/25 01:44:34;;;;;;;15.52;12.60;;;512.50;2380.80;;;;;;5065042;28;20029;-77
2021/07/25 01:46:59;;;;;;;19.08;13.52;;;512.40;2380.80;;;;;;5062792;28;20025;-77
2021/07/25 01:49:25;;;;;;;16.83;13.15;;;512.40;2380.80;;;;;;5072417;28;20098;-75
2021/07/25 01:51:51;;;;;;;14.88;12.25;;;512.40;2380.80;;;;;;5084907;28;20048;-78
2021/07/25 01:54:16;;;;;;;16.27;12.43;;;512.40;2380.80;;;;;;5068051;28;20374;-77
2021/07/25 01:56:42;;;;;;;15.77;12.82;;;512.40;2380.80;;;;;;5076515;28;20027;-75
2021/07/25 01:59:08;;;;;;;17.63;13.20;;;512.50;2380.80;;;;;;5081559;28;20024;-77
2021/07/25 02:01:33;;;;;;;23.88;14.45;;;512.50;2380.80;;;;;;5073442;28;20095;-77
2021/07/25 02:03:59;;;;;;;15.70;11.95;;;512.50;2380.80;;;;;;5072124;28;20390;-77
2021/07/25 02:06:25;;;;;;;16.00;13.45;;;512.50;2380.80;;;;;;5085252;28;20025;-77
2021/07/25 02:08:50;;;;;;;18.05;13.90;;;512.40;2380.80;;;;;;5077392;28;20065;-77
2021/07/25 02:11:16;;;;;;;18.88;13.07;;;512.40;2380.80;;;;;;5071234;28;20637;-77
2021/07/25 02:13:42;;;;;;;18.35;13.85;;;512.30;2380.80;;;;;;5068520;28;20021;-76
2021/07/25 02:16:08;;;;;;;17.98;13.13;;;512.40;2380.80;;;;;;5057131;28;20381;-76
2021/07/25 02:18:33;;;;;;;17.10;13.38;;;512.50;2380.80;;;;;;5086029;28;20020;-77
2021/07/25 02:20:59;;;;;;;22.25;12.88;;;512.40;2380.80;;;;;;5078369;28;20036;-76
2021/07/25 02:23:25;;;;;;;18.60;13.27;;;512.40;2380.80;;;;;;5078847;28;20545;-77
2021/07/25 02:25:51;;;;;;;22.02;12.82;;;512.40;2380.80;;;;;;5084650;28;20502;-78
2021/07/25 02:28:16;;;;;;;18.23;12.48;;;512.40;2380.80;;;;;;5072609;28;20409;-77
2021/07/25 02:30:42;;;;;;;19.92;14.35;;;512.40;2380.80;;;;;;5084775;28;20071;-78
2021/07/25 02:33:08;;;;;;;15.77;12.98;;;512.40;2380.80;;;;;;5079598;28;20028;-78
2021/07/25 02:35:34;;;;;;;14.77;13.00;;;512.40;2380.80;;;;;;5075231;28;20028;-78
2021/07/25 02:37:59;;;;;;;17.92;13.57;;;512.50;2380.80;;;;;;5072103;28;20020;-78
2021/07/25 02:40:25;;;;;;;20.90;13.80;;;512.40;2380.80;;;;;;5058002;28;20025;-77
2021/07/25 02:42:51;;;;;;;14.25;12.35;;;512.50;2380.80;;;;;;5062778;28;20549;-77
2021/07/25 02:45:17;;;;;;;19.95;13.93;;;512.50;2380.80;;;;;;5064137;28;20070;-77
2021/07/25 02:47:43;;;;;;;20.85;13.88;;;512.50;2380.80;;;;;;5061150;28;20017;-77
2021/07/25 02:50:09;;;;;;;18.27;14.32;;;512.50;2380.80;;;;;;5063122;28;20082;-77
2021/07/25 02:52:36;;;;;;;17.38;13.32;;;512.30;2380.80;;;;;;5081600;28;20122;-76
2021/07/25 02:55:03;;;;;;;18.17;13.43;;;512.40;2380.80;;;;;;5079583;28;20048;-76
2021/07/25 02:57:29;;;;;;;19.15;13.50;;;512.40;2380.80;;;;;;5082087;28;20044;-78
2021/07/25 02:59:54;;;;;;;18.33;14.18;;;512.40;2380.80;;;;;;5076580;28;20067;-78
2021/07/25 03:02:20;;;;;;;18.77;13.88;;;512.40;2380.80;;;;;;5080383;28;20334;-78
2021/07/25 03:04:47;;;;;;;20.30;14.40;;;512.40;2380.80;;;;;;5079529;28;20501;-78
2021/07/25 03:07:14;;;;;;;17.70;13.90;;;512.40;2380.80;;;;;;5077950;28;20030;-78
2021/07/25 03:09:40;;;;;;;18.95;13.82;;;512.30;2380.80;;;;;;5075679;28;20117;-77
2021/07/25 03:12:06;;;;;;;17.10;13.63;;;512.40;2380.80;;;;;;5089887;28;20051;-78
2021/07/25 03:14:32;;;;;;;20.30;13.77;;;512.40;2380.80;;;;;;5068415;28;20020;-78
2021/07/25 03:16:57;;;;;;;17.77;14.63;;;512.50;2380.80;;;;;;5076363;28;20079;-79
2021/07/25 03:19:23;;;;;;;20.48;13.25;;;512.50;2380.80;;;;;;5057757;28;20055;-78
2021/07/25 03:21:49;;;;;;;23.10;13.32;;;512.50;2380.80;;;;;;5059028;28;20048;-78
2021/07/25 03:24:14;;;;;;;16.30;12.90;;;512.40;2380.80;;;;;;5060558;28;20058;-78
2021/07/25 03:26:40;;;;;;;16.13;13.63;;;512.40;2380.80;;;;;;5062083;28;20028;-78
2021/07/25 03:29:06;;;;;;;17.75;13.95;;;512.40;2380.80;;;;;;5062782;28;20021;-78
2021/07/25 03:31:32;;;;;;;17.55;13.82;;;512.40;2380.80;;;;;;5061778;28;20031;-78
2021/07/25 03:33:59;;;;;;;19.50;14.10;;;512.50;2380.80;;;;;;5058907;28;20482;-78
2021/07/25 03:36:26;;;;;;;17.63;13.70;;;512.50;2380.80;;;;;;5061782;28;20044;-78
2021/07/25 03:38:52;;;;;;;16.98;14.45;;;512.50;2380.80;;;;;;5062185;28;20371;-78
2021/07/25 03:41:18;;;;;;;17.85;13.52;;;512.60;2380.80;;;;;;5066563;28;20023;-78
2021/07/25 03:43:43;;;;;;;19.08;14.07;;;512.60;2380.80;;;;;;5062551;28;20020;-78
2021/07/25 03:46:09;;;;;;;18.13;14.55;;;512.50;2380.80;;;;;;5075078;28;20111;-79
2021/07/25 03:48:36;;;;;;;20.90;15.30;;;512.50;2380.80;;;;;;5067705;28;20108;-77
2021/07/25 03:51:01;;;;;;;20.23;15.35;;;512.60;2380.80;;;;;;5053110;28;20597;-74
2021/07/25 04:08:38;;;;;;;16.70;14.82;;;512.50;2380.80;;;;;;5109340;27;20403;-76
2021/07/25 04:11:04;;;;;;;15.55;13.93;;;537.80;2406.40;;;;;;5107410;28;20040;-81
2021/07/25 04:13:30;;;;;;;21.83;14.30;;;537.80;2406.40;;;;;;5107741;28;20032;-77
2021/07/25 04:15:56;;;;;;;21.52;13.27;;;537.80;2406.40;;;;;;5107731;28;20054;-77
2021/07/25 04:18:21;;;;;;;17.63;14.20;;;537.70;2406.40;;;;;;5107862;28;20019;-77
2021/07/25 04:20:47;;;;;;;16.90;13.82;;;537.70;2406.40;;;;;;5106917;28;20035;-76
2021/07/25 04:23:13;;;;;;;17.30;14.35;;;537.70;2406.40;;;;;;5107032;28;20075;-78
2021/07/25 04:25:39;;;;;;;20.05;14.20;;;537.70;2406.40;;;;;;5108857;28;20480;-76
2021/07/25 04:28:06;;;;;;;18.90;14.27;;;537.80;2406.40;;;;;;5105503;28;20027;-77
2021/07/25 04:30:33;;;;;;;21.08;14.07;;;537.70;2406.40;;;;;;5107569;28;20024;-77
2021/07/25 04:33:00;;;;;;;17.90;13.95;;;537.80;2406.40;;;;;;5106611;28;20020;-77
2021/07/25 04:35:26;;;;;;;18.33;12.88;;;537.80;2406.40;;;;;;5107532;28;20027;-77
2021/07/25 04:37:54;;;;;;;26.35;13.30;;;537.90;2406.40;;;;;;5107497;28;20050;-75
2021/07/25 04:40:21;;;;;;;18.00;12.20;;;537.90;2406.40;;;;;;5109352;28;20020;-75
2021/07/25 04:42:52;;;;;;;22.35;12.57;;;538.00;2406.40;;;;;;5095387;28;20024;-75
2021/07/25 04:45:28;;;;;;;19.98;12.65;;;538.00;2406.40;;;;;;5087466;28;20024;-75
2021/07/25 04:48:04;;;;;;;18.02;12.57;;;538.10;2406.40;;;;;;5087452;28;20020;-75
2021/07/25 04:50:36;;;;;;;13.57;11.43;;;538.10;2406.40;;;;;;5104035;28;20021;-75
2021/07/25 04:53:04;;;;;;;16.27;11.32;;;538.20;2406.40;;;;;;5104168;28;20025;-75
2021/07/25 04:55:35;;;;;;;14.68;11.93;;;538.20;2406.40;;;;;;5106349;28;20547;-75
2021/07/25 04:58:07;;;;;;;14.73;11.07;;;538.40;2406.40;;;;;;5106409;28;20040;-76
2021/07/25 05:00:41;;;;;;;13.35;11.05;;;538.50;2406.40;;;;;;5106896;28;20111;-74
2021/07/25 05:03:07;;;;;;;15.70;10.15;;;563.20;2432.00;;;;;;5108256;28;20028;-75
2021/07/25 05:05:33;;;;;;;13.40;10.75;;;563.30;2406.40;;;;;;5106769;28;20111;-74
2021/07/25 05:08:01;;;;;;;16.50;10.13;;;563.50;2355.20;;;;;;5101619;28;20472;-75
2021/07/25 05:10:28;;;;;;;14.10;10.23;;;563.60;2329.60;;;;;;5094539;28;20091;-86
2021/07/25 05:13:08;;;;;;;12.98;10.43;;;563.70;2355.20;;;;;;5094695;28;20016;-76
2021/07/25 05:15:39;;;;;;;12.32;10.43;;;563.80;2304.00;;;;;;5094518;28;20047;-75
2021/07/25 05:18:07;;;;;;;17.00;10.40;;;563.90;2304.00;;;;;;5094382;28;20031;-76
2021/07/25 05:21:01;;;;;;;12.38;9.98;;;564.00;2278.40;;;;;;5092968;28;20032;-75
2021/07/25 05:23:42;;;;;;;13.70;10.38;;;564.10;2227.20;;;;;;5091514;28;20034;-83
2021/07/25 05:26:10;;;;;;;16.30;9.07;;;588.80;2227.20;;;;;;5092919;28;20062;-76
2021/07/25 05:28:37;;;;;;;13.20;9.90;;;589.00;2201.60;;;;;;5094139;28;20085;-75
2021/07/25 05:31:07;;;;;;;22.00;9.35;;;589.10;2150.40;;;;;;5093999;28;20366;-78
2021/07/25 05:33:33;;;;;;;11.88;9.80;;;589.20;2176.00;;;;;;5087722;28;20044;-76
2021/07/25 05:35:58;;;;;;;19.92;9.18;;;589.20;2124.80;;;;;;5087106;28;20071;-79
2021/07/25 05:38:24;;;;;;;14.77;9.35;;;589.30;2150.40;;;;;;5094019;28;20099;-77
2021/07/25 05:40:50;;;;;;;16.95;9.30;;;589.40;2176.00;;;;;;5093969;28;20023;-76
2021/07/25 05:43:16;;;;;;;13.32;9.27;;;589.50;2176.00;;;;;;5094062;28;20016;-76
2021/07/25 05:45:43;;;;;;;13.43;9.20;;;589.60;2124.80;;;;;;5092393;28;20020;-75
2021/07/25 05:48:08;;;;;;;13.40;9.57;;;589.50;2124.80;;;;;;5093614;28;20546;-74
2021/07/25 05:50:34;;;;;;;14.43;9.20;;;589.60;2124.80;;;;;;5093741;28;20028;-74
2021/07/25 05:53:00;;;;;;;11.20;9.10;;;589.70;2124.80;;;;;;5093654;28;20095;-74
2021/07/25 05:55:31;;;;;;;16.13;9.48;;;589.60;2124.80;;;;;;5093920;28;20069;-73
2021/07/25 05:57:58;;;;;;;17.85;10.35;;;589.60;2124.80;;;;;;5093411;28;20477;-73
2021/07/25 06:00:24;;;;;;;19.55;10.00;;;589.70;2124.80;;;;;;5093606;28;20502;-74
2021/07/25 06:02:50;;;;;;;12.02;9.25;;;589.70;2124.80;;;;;;5093570;28;20024;-75
2021/07/25 06:05:16;;;;;;;14.50;9.27;;;589.70;2124.80;;;;;;5093523;28;20016;-74
2021/07/25 06:07:42;;;;;;;13.88;9.55;;;589.70;2124.80;;;;;;5093073;28;20051;-82
2021/07/25 06:10:08;;;;;;;44.60;10.25;;;614.40;2124.80;;;;;;5078756;28;20054;-74
2021/07/25 06:12:36;;;;;;;17.48;10.20;;;614.40;2124.80;;;;;;5077245;28;20012;-77
2021/07/25 06:15:02;;;;;;;16.25;9.30;;;614.40;2099.20;;;;;;5091569;28;20028;-76
2021/07/25 06:17:28;;;;;;;15.02;10.00;;;614.40;2099.20;;;;;;5092730;28;20496;-77
2021/07/25 06:19:54;;;;;;;13.52;9.63;;;614.40;2073.60;;;;;;5095190;28;20024;-76
2021/07/25 06:22:19;;;;;;;15.95;9.52;;;614.40;2073.60;;;;;;5096760;28;20028;-82
2021/07/25 06:24:45;;;;;;;17.20;10.10;;;614.50;2073.60;;;;;;5100709;28;20569;-76
2021/07/25 06:27:11;;;;;;;13.48;9.13;;;614.50;2073.60;;;;;;5092746;28;20050;-86
2021/07/25 06:29:37;;;;;;;14.52;9.35;;;614.60;2048.00;;;;;;5092307;28;20024;-76
2021/07/25 06:32:03;;;;;;;17.70;12.75;;;614.60;2048.00;;;;;;5092125;28;20052;-75
2021/07/25 06:34:29;;;;;;;14.05;10.48;;;614.80;2073.60;;;;;;5093112;28;20031;-75
2021/07/25 06:36:55;;;;;;;14.05;9.40;;;614.80;2048.00;;;;;;5093522;28;20442;-81
2021/07/25 06:39:20;;;;;;;16.77;9.77;;;615.10;2048.00;;;;;;5084884;28;20087;-80
2021/07/25 06:41:46;;;;;;;10.70;8.77;;;615.10;1996.80;;;;;;5093100;28;20024;-86
2021/07/25 06:44:12;;;;;;;14.80;10.23;;;615.30;1996.80;;;;;;5093162;28;20058;-74
2021/07/25 06:46:38;;;;;;;14.55;9.48;;;640.10;1996.80;;;;;;5092906;28;20504;-90
2021/07/25 06:49:03;;;;;;;14.40;9.95;;;640.10;1971.20;;;;;;5093024;28;20031;-76
2021/07/25 06:51:29;;;;;;;14.68;10.57;;;640.10;1945.60;;;;;;5092544;28;20016;-74
2021/07/25 06:53:55;;;;;;;13.02;9.40;;;640.30;1996.80;;;;;;5090885;28;20542;-74
2021/07/25 06:56:20;;;;;;;13.95;8.88;;;640.40;1920.00;;;;;;5092451;28;20542;-75
2021/07/25 06:58:46;;;;;;;14.88;9.43;;;640.40;1920.00;;;;;;5087174;28;20059;-78
2021/07/25 07:01:12;;;;;;;14.00;8.77;;;640.60;1920.00;;;;;;5081346;28;20388;-88
2021/07/25 07:03:38;;;;;;;12.35;8.38;;;640.70;1868.80;;;;;;5092591;28;20069;-75
2021/07/25 07:06:08;;;;;;;12.77;8.75;;;640.70;1817.60;;;;;;5092718;28;20077;-75
2021/07/25 07:08:33;;;;;;;13.80;9.93;;;640.70;1868.80;;;;;;5092729;28;20051;-72
2021/07/25 07:10:59;;;;;;;14.70;9.70;;;640.90;1843.20;;;;;;5092387;28;20024;-74
2021/07/25 07:13:26;;;;;;;9.43;8.43;;;665.60;1894.40;;;;;;5092519;28;20058;-75
2021/07/25 07:15:51;;;;;;;15.23;9.50;;;640.80;1843.20;;;;;;5092578;28;20020;-73
2021/07/25 07:18:19;;;;;;;12.60;8.88;;;665.90;1868.80;;;;;;5092929;28;20034;-76
2021/07/25 07:20:45;;;;;;;14.85;9.05;;;666.00;1868.80;;;;;;5092737;28;20103;-74
2021/07/25 07:23:13;;;;;;;14.65;9.60;;;666.00;1843.20;;;;;;5092262;28;20484;-75
2021/07/25 07:25:44;;;;;;;13.13;9.10;;;666.10;1843.20;;;;;;5092335;28;20023;-75
2021/07/25 07:28:10;;;;;;;19.95;8.77;;;666.30;1894.40;;;;;;5092380;28;20020;-75
2021/07/25 07:30:37;;;;;;;24.30;9.43;;;666.50;1843.20;;;;;;5092449;28;20469;-77
2021/07/25 07:33:09;;;;;;;17.92;9.60;;;691.20;1792.00;;;;;;5089451;28;20157;-75
2021/07/25 07:35:36;;;;;;;12.88;8.77;;;691.20;1792.00;;;;;;5092239;28;20103;-75
2021/07/25 07:38:02;;;;;;;23.73;9.30;;;691.20;1792.00;;;;;;5092372;28;20500;-74
2021/07/25 07:40:29;;;;;;;17.40;8.73;;;691.20;1766.40;;;;;;5093056;28;20377;-78
2021/07/25 07:42:54;;;;;;;14.82;9.35;;;691.20;1766.40;;;;;;5092263;28;20468;-87
2021/07/25 07:45:20;;;;;;;11.75;8.98;;;691.30;1740.80;;;;;;5092201;28;20023;-73
2021/07/25 07:47:48;;;;;;;14.20;9.20;;;691.20;1766.40;;;;;;5089812;28;20024;-81
2021/07/25 07:50:14;;;;;;;15.32;9.07;;;691.60;1766.40;;;;;;5091945;28;20535;-74
2021/07/25 07:52:40;;;;;;;15.88;8.52;;;691.70;1740.80;;;;;;5091806;28;20469;-76
2021/07/25 07:55:06;;;;;;;11.88;8.43;;;691.70;1740.80;;;;;;5092873;28;20729;-77
2021/07/25 07:57:32;;;;;;;12.88;8.10;;;691.70;1740.80;;;;;;5104363;28;20476;-76
2021/07/25 07:59:57;;;;;;;12.95;8.88;;;691.80;1689.60;;;;;;5106953;28;20123;-88
2021/07/25 08:02:23;;;;;;;11.27;7.80;;;691.90;1689.60;;;;;;5112898;28;20030;-80
2021/07/25 08:04:49;;;;;;;15.30;9.18;;;692.00;1689.60;;;;;;5107066;28;20019;-82
2021/07/25 08:07:15;;;;;;;13.32;9.10;;;692.00;1664.00;;;;;;5103189;28;20051;-80
2021/07/25 08:09:40;;;;;;;15.10;9.18;;;692.00;1689.60;;;;;;5072499;28;20020;-82
2021/07/25 08:12:07;;;;;;;18.05;9.07;;;716.80;1715.20;;;;;;5072582;28;20141;-76
2021/07/25 08:14:32;;;;;;;16.58;8.55;;;716.80;1689.60;;;;;;5072485;28;20059;-75
2021/07/25 08:16:59;;;;;;;11.85;8.05;;;716.90;1664.00;;;;;;5072808;28;20071;-75
2021/07/25 08:19:25;;;;;;;21.27;9.68;;;716.90;1612.80;;;;;;5088093;28;20031;-76
2021/07/25 08:21:50;;;;;;;14.68;8.02;;;717.00;1638.40;;;;;;5091227;28;20393;-76
2021/07/25 08:24:16;;;;;;;10.35;6.85;;;717.20;1664.00;;;;;;5092347;28;20055;-82
2021/07/25 08:26:42;;;;;;;13.30;7.97;;;717.20;1638.40;;;;;;5092575;28;20020;-84
2021/07/25 08:29:08;;;;;;;9.55;8.15;;;717.30;1638.40;;;;;;5088380;28;20036;-78
2021/07/25 08:31:34;;;;;;;12.45;7.47;;;717.40;1638.40;;;;;;5089157;28;20016;-83
2021/07/25 08:34:00;;;;;;;14.52;7.75;;;717.50;1638.40;;;;;;5091082;28;20108;-74
2021/07/25 08:36:25;;;;;;;11.95;7.20;;;717.50;1612.80;;;;;;5091393;28;20032;-80
2021/07/25 08:38:51;;;;;;;14.18;7.03;;;717.60;1612.80;;;;;;5090173;28;20024;-77
2021/07/25 08:41:42;;;;;;;11.75;7.80;;;717.50;1536.00;;;;;;5090204;28;20477;-74
2021/07/25 08:44:46;;;;;;;10.18;7.25;;;717.50;1561.60;;;;;;5092515;28;20035;-85
2021/07/25 08:47:26;;;;;;;11.25;7.40;;;717.60;1561.60;;;;;;5092980;28;20080;-75
2021/07/25 08:49:57;;;;;;;18.35;8.13;;;717.60;1536.00;;;;;;5092856;28;20024;-76
2021/07/25 08:52:29;;;;;;;8.73;7.05;;;717.60;1561.60;;;;;;5091932;28;20099;-76
2021/07/25 08:54:57;;;;;;;12.32;7.40;;;717.50;1536.00;;;;;;5093258;28;20024;-76
2021/07/25 08:57:31;;;;;;;11.27;7.05;;;717.70;1536.00;;;;;;5090464;28;20049;-75
2021/07/25 08:59:58;;;;;;;12.52;7.47;;;717.70;1536.00;;;;;;5093911;28;20477;-76
2021/07/25 09:02:28;;;;;;;9.73;7.57;;;717.60;1536.00;;;;;;5090821;28;20073;-84
2021/07/25 09:04:55;;;;;;;11.35;7.38;;;742.40;1587.20;;;;;;5092490;28;20466;-76
2021/07/25 09:07:24;;;;;;;11.80;7.65;;;717.70;1536.00;;;;;;5091171;28;20036;-75
2021/07/25 09:09:53;;;;;;;13.25;8.07;;;717.70;1561.60;;;;;;5091359;28;20016;-76
2021/07/25 09:12:19;;;;;;;12.73;8.45;;;717.70;1561.60;;;;;;5090542;28;20035;-79
2021/07/25 09:14:49;;;;;;;14.75;7.88;;;717.70;1561.60;;;;;;5092194;28;20028;-75
2021/07/25 09:17:15;;;;;;;9.50;7.55;;;717.70;1587.20;;;;;;5092815;28;20061;-75
2021/07/25 09:20:17;;;;;;;11.23;7.90;;;717.70;1587.20;;;;;;5093185;28;20024;-75
2021/07/25 09:22:49;;;;;;;13.68;8.05;;;742.50;1587.20;;;;;;5093184;28;20058;-74
2021/07/25 09:25:21;;;;;;;12.32;8.05;;;742.50;1612.80;;;;;;5093369;28;20099;-75
2021/07/25 09:28:07;;;;;;;14.65;9.20;;;742.60;1612.80;;;;;;5090621;28;20070;-76
2021/07/25 09:30:33;;;;;;;14.65;8.82;;;742.60;1587.20;;;;;;5090394;28;20036;-74
2021/07/25 09:32:59;;;;;;;12.57;8.45;;;742.70;1612.80;;;;;;5091976;28;20081;-78
2021/07/25 09:35:29;;;;;;;11.50;8.13;;;742.80;1612.80;;;;;;5090624;28;20089;-78
2021/07/25 09:38:08;;;;;;;18.50;8.63;;;742.90;1612.80;;;;;;5091358;28;20044;-76
2021/07/25 09:40:40;;;;;;;14.02;7.93;;;743.00;1612.80;;;;;;5092443;28;20016;-78
2021/07/25 09:43:15;;;;;;;12.35;8.55;;;743.10;1561.60;;;;;;5089690;28;20068;-78
2021/07/25 09:45:50;;;;;;;14.98;8.48;;;743.00;1587.20;;;;;;5088402;28;20024;-77
2021/07/25 09:48:23;;;;;;;16.10;8.40;;;743.10;1587.20;;;;;;5091090;28;20027;-76
2021/07/25 09:50:50;;;;;;;11.10;8.30;;;743.30;1587.20;;;;;;5091132;28;20373;-75
2021/07/25 09:53:17;;;;;;;12.32;8.13;;;743.30;1561.60;;;;;;5092793;28;20118;-77
2021/07/25 09:55:43;;;;;;;14.98;7.80;;;768.10;1612.80;;;;;;5091332;28;20427;-79
2021/07/25 09:58:09;;;;;;;11.25;9.02;;;768.30;1561.60;;;;;;5092784;28;20044;-76
2021/07/25 10:00:43;;;;;;;13.35;9.20;;;768.40;1587.20;;;;;;5091974;28;20065;-76
2021/07/25 10:03:18;;;;;;;12.55;8.68;;;768.40;1561.60;;;;;;5101186;28;20053;-78
2021/07/25 10:05:44;;;;;;;15.57;8.37;;;768.60;1587.20;;;;;;5102364;28;20124;-78
2021/07/25 10:08:15;;;;;;;13.65;8.88;;;768.60;1561.60;;;;;;5090292;28;20322;-77
2021/07/25 10:10:46;;;;;;;14.35;9.00;;;768.50;1561.60;;;;;;5092679;28;20416;-75
2021/07/25 10:13:16;;;;;;;11.13;7.97;;;768.60;1561.60;;;;;;5088346;28;20106;-77
2021/07/25 10:16:01;;;;;;;13.05;9.13;;;768.40;1536.00;;;;;;5091219;28;20500;-78
2021/07/25 10:18:27;;;;;;;14.57;8.60;;;768.50;1587.20;;;;;;5091695;28;20032;-78
2021/07/25 10:20:58;;;;;;;11.63;8.32;;;768.80;1561.60;;;;;;5090989;28;20020;-78
2021/07/25 10:23:39;;;;;;;12.55;8.27;;;768.90;1536.00;;;;;;5091534;28;20027;-78
2021/07/25 10:26:05;;;;;;;13.00;8.75;;;768.80;1536.00;;;;;;5091635;28;20111;-75
2021/07/25 10:28:31;;;;;;;12.98;7.85;;;768.80;1536.00;;;;;;5081381;28;20027;-75
2021/07/25 10:31:00;;;;;;;10.35;7.95;;;793.60;1510.40;;;;;;5086980;28;20028;-76
2021/07/25 10:33:29;;;;;;;13.88;8.18;;;768.90;1484.80;;;;;;5092653;28;20025;-76
2021/07/25 10:36:01;;;;;;;15.18;9.07;;;793.60;1536.00;;;;;;5092644;28;20028;-76
2021/07/25 10:38:27;;;;;;;14.70;8.65;;;794.10;1536.00;;;;;;5082386;28;20062;-80
2021/07/25 10:40:54;;;;;;;10.48;8.68;;;793.90;1459.20;;;;;;5088679;28;20016;-76
2021/07/25 10:43:25;;;;;;;16.10;9.05;;;793.90;1484.80;;;;;;5093575;28;20024;-75
2021/07/25 10:46:19;;;;;;;13.68;10.02;;;794.00;1536.00;;;;;;5093230;28;20016;-75
2021/07/25 10:49:09;;;;;;;14.52;8.65;;;794.20;1484.80;;;;;;5086185;28;20031;-78
2021/07/25 10:51:36;;;;;;;12.07;8.18;;;794.20;1510.40;;;;;;5088368;28;20104;-78
2021/07/25 10:54:24;;;;;;;10.82;8.27;;;794.10;1459.20;;;;;;5092701;28;20024;-76
2021/07/25 10:57:02;;;;;;;18.52;8.80;;;794.00;1484.80;;;;;;5093849;28;20039;-76
2021/07/25 10:59:47;;;;;;;19.23;7.78;;;794.20;1459.20;;;;;;5093140;28;20107;-76
2021/07/25 11:02:29;;;;;;;11.35;8.13;;;794.40;1484.80;;;;;;5093415;28;20024;-77
2021/07/25 11:04:55;;;;;;;11.77;8.52;;;794.40;1459.20;;;;;;5093123;28;20059;-75
2021/07/25 11:07:24;;;;;;;14.98;8.98;;;794.50;1459.20;;;;;;5090087;28;20452;-75
2021/07/25 11:09:56;;;;;;;13.45;8.70;;;794.50;1484.80;;;;;;5092043;28;20031;-76
2021/07/25 11:12:21;;;;;;;18.65;9.27;;;819.30;1510.40;;;;;;5080335;28;20052;-85
2021/07/25 11:14:59;;;;;;;32.63;11.70;;;819.20;1408.00;;;;;;5091632;28;20054;-84
2021/07/25 11:17:44;;;;;;;9.02;7.95;;;794.30;1408.00;;;;;;5092012;28;20028;-76
2021/07/25 11:20:30;;;;;;;9.85;8.05;;;794.40;1433.60;;;;;;5082067;28;20078;-76
2021/07/25 11:22:56;;;;;;;12.07;10.00;;;819.30;1433.60;;;;;;5047007;28;20032;-77
2021/07/25 11:25:32;;;;;;;15.18;8.52;;;819.40;1433.60;;;;;;5033158;28;20499;-76
2021/07/25 11:27:58;;;;;;;32.08;9.35;;;819.30;1382.40;;;;;;5050252;28;20045;-76
2021/07/25 11:30:48;;;;;;;17.42;9.65;;;819.30;1382.40;;;;;;5049791;28;20033;-77
2021/07/25 11:33:45;;;;;;;14.15;9.00;;;819.60;1382.40;;;;;;5058666;28;20051;-77
2021/07/25 11:36:17;;;;;;;14.70;7.90;;;819.70;1382.40;;;;;;5049678;28;20033;-86
2021/07/25 11:38:48;;;;;;;13.00;9.23;;;819.50;1382.40;;;;;;5050380;28;20490;-77
2021/07/25 11:41:20;;;;;;;12.35;8.43;;;819.40;1331.20;;;;;;5050570;28;20167;-78
2021/07/25 11:43:52;;;;;;;12.07;8.05;;;819.40;1408.00;;;;;;5033264;28;20063;-76
2021/07/25 11:46:26;;;;;;;12.50;9.18;;;819.70;1382.40;;;;;;5034401;28;20045;-87
2021/07/25 11:49:17;;;;;;;11.50;8.38;;;819.80;1408.00;;;;;;5029165;28;20093;-75
2021/07/25 11:51:58;;;;;;;13.82;9.10;;;819.80;1382.40;;;;;;5031817;28;20025;-77
2021/07/25 11:54:34;;;;;;;13.35;8.48;;;819.90;1356.80;;;;;;5029677;28;20097;-76
2021/07/25 11:57:01;;;;;;;12.27;8.98;;;819.80;1331.20;;;;;;5048749;28;20032;-77
2021/07/25 11:59:29;;;;;;;12.40;8.65;;;819.80;1356.80;;;;;;5060249;28;20460;-77
2021/07/25 12:01:55;;;;;;;11.30;9.38;;;819.80;1331.20;;;;;;5090537;28;20020;-77
2021/07/25 12:04:25;;;;;;;17.80;8.05;;;819.90;1356.80;;;;;;5091687;28;20017;-78
2021/07/25 12:07:05;;;;;;;15.32;8.55;;;820.00;1331.20;;;;;;5089994;28;20067;-77
2021/07/25 12:09:33;;;;;;;12.45;9.32;;;820.00;1331.20;;;;;;5091337;28;20020;-77
2021/07/25 12:12:06;;;;;;;14.35;8.23;;;820.10;1331.20;;;;;;5088670;28;20024;-77
2021/07/25 12:14:33;;;;;;;13.15;8.88;;;820.10;1305.60;;;;;;5077096;28;20044;-82
2021/07/25 12:16:59;;;;;;;11.02;8.45;;;820.10;1331.20;;;;;;5088281;28;20079;-84
2021/07/25 12:19:25;;;;;;;11.25;8.70;;;844.90;1356.80;;;;;;5093685;28;20048;-80
2021/07/25 12:22:15;;;;;;;11.73;9.32;;;820.10;1305.60;;;;;;5093041;28;20039;-77
2021/07/25 12:24:53;;;;;;;10.32;8.60;;;820.10;1331.20;;;;;;5092988;28;20027;-77
2021/07/25 12:27:28;;;;;;;12.32;8.65;;;820.10;1331.20;;;;;;5092323;28;20035;-80
2021/07/25 12:30:14;;;;;;;10.00;8.88;;;844.90;1356.80;;;;;;5095109;28;20481;-82
2021/07/25 12:32:41;;;;;;;16.45;8.68;;;845.00;1331.20;;;;;;5092578;28;20418;-79
2021/07/25 12:35:10;;;;;;;13.73;8.88;;;844.90;1331.20;;;;;;5095367;28;20028;-78
2021/07/25 12:37:45;;;;;;;23.60;9.88;;;844.90;1305.60;;;;;;5094900;28;20040;-78
2021/07/25 12:40:15;;;;;;;9.98;8.77;;;844.90;1305.60;;;;;;5095222;28;20432;-78
2021/07/25 12:42:45;;;;;;;12.52;8.43;;;845.00;1331.20;;;;;;5096569;28;20376;-78
2021/07/25 12:45:33;;;;;;;17.02;9.68;;;844.90;1280.00;;;;;;5095237;28;20480;-77